Time;durP1;ratioP1;P1;durP2;ratioP2;P2;SDS_P1;SDS_P2;PMS_P1;PMS_P2;Temp;Humidity;BMP_temperature;BMP_pressure;BME280_temperature;BME280_humidity;BME280_pressure;Samples;Min_cycle;Max_cycle;Signal;HPM_P1;HPM_P2
2020/12/12 00:02:15;;;;;;;89.25;43.33;;;7.10;99.90;;;;;;5057333;28;20032;-69
2020/12/12 00:04:41;;;;;;;92.28;44.08;;;7.00;99.90;;;;;;5056463;28;20056;-69
2020/12/12 00:07:07;;;;;;;96.03;43.90;;;7.10;99.90;;;;;;5057974;28;20028;-69
2020/12/12 00:09:33;;;;;;;84.57;42.50;;;7.10;99.90;;;;;;5060643;28;20037;-70
2020/12/12 00:11:59;;;;;;;94.22;45.80;;;7.10;99.90;;;;;;5057925;28;20025;-70
2020/12/12 00:14:25;;;;;;;84.43;44.50;;;7.10;99.90;;;;;;5057983;28;20031;-69
2020/12/12 00:16:51;;;;;;;93.10;43.28;;;7.10;99.90;;;;;;5055267;28;20017;-70
2020/12/12 00:19:17;;;;;;;87.07;42.53;;;7.10;99.90;;;;;;5057745;28;20033;-70
2020/12/12 00:21:43;;;;;;;86.38;41.65;;;7.10;99.90;;;;;;5057490;28;20090;-70
2020/12/12 00:24:08;;;;;;;84.45;41.22;;;7.10;99.90;;;;;;5056337;28;20035;-69
2020/12/12 00:26:34;;;;;;;85.57;43.70;;;7.10;99.90;;;;;;5059806;28;20511;-69
2020/12/12 00:29:00;;;;;;;77.13;40.38;;;7.10;99.90;;;;;;5059205;28;20025;-70
2020/12/12 00:31:25;;;;;;;80.60;42.35;;;7.10;99.90;;;;;;5055889;28;20021;-70
2020/12/12 00:33:51;;;;;;;78.22;39.78;;;7.10;99.90;;;;;;5055513;28;20386;-70
2020/12/12 00:36:17;;;;;;;73.65;39.35;;;7.00;99.90;;;;;;5056349;28;20025;-70
2020/12/12 00:38:43;;;;;;;74.65;38.75;;;7.00;99.90;;;;;;5059325;28;20068;-68
2020/12/12 00:41:08;;;;;;;76.35;40.22;;;7.10;99.90;;;;;;5054072;28;20592;-69
2020/12/12 00:43:34;;;;;;;82.00;40.72;;;7.00;99.90;;;;;;5057133;28;20029;-70
2020/12/12 00:46:01;;;;;;;81.43;40.78;;;7.10;99.90;;;;;;5059187;28;20094;-68
2020/12/12 00:48:27;;;;;;;82.57;41.80;;;7.10;99.90;;;;;;5055013;28;20033;-70
2020/12/12 00:50:52;;;;;;;84.35;40.22;;;7.10;99.90;;;;;;5054808;28;20032;-70
2020/12/12 00:53:18;;;;;;;73.88;38.38;;;7.10;99.90;;;;;;5058639;28;20029;-70
2020/12/12 00:55:44;;;;;;;75.05;38.10;;;7.10;99.90;;;;;;5053714;28;20028;-70
2020/12/12 00:58:10;;;;;;;76.43;38.13;;;7.10;99.90;;;;;;5055140;28;20021;-69
2020/12/12 01:00:35;;;;;;;70.63;37.47;;;7.10;99.90;;;;;;5056478;28;20031;-69
2020/12/12 01:03:02;;;;;;;76.30;38.85;;;7.10;99.90;;;;;;5058563;28;20039;-70
2020/12/12 01:05:29;;;;;;;75.40;39.00;;;7.00;99.90;;;;;;5053318;28;20496;-70
2020/12/12 01:07:54;;;;;;;79.07;39.60;;;7.00;99.90;;;;;;5056884;28;20052;-69
2020/12/12 01:10:20;;;;;;;78.28;40.00;;;7.00;99.90;;;;;;5055757;28;20021;-70
2020/12/12 01:12:46;;;;;;;75.32;38.78;;;7.00;99.90;;;;;;5053683;28;20025;-69
2020/12/12 01:15:12;;;;;;;72.70;37.35;;;6.90;99.90;;;;;;5056078;28;20032;-70
2020/12/12 01:17:38;;;;;;;83.38;39.42;;;6.90;99.90;;;;;;5054806;28;20025;-68
2020/12/12 01:20:04;;;;;;;85.22;38.75;;;7.00;99.90;;;;;;5057249;28;20449;-69
2020/12/12 01:22:30;;;;;;;77.00;38.45;;;6.90;99.90;;;;;;5056341;28;20103;-69
2020/12/12 01:24:55;;;;;;;81.10;40.33;;;6.90;99.90;;;;;;5054558;28;20078;-70
2020/12/12 01:27:21;;;;;;;81.88;41.13;;;6.90;99.90;;;;;;5053798;28;20140;-71
2020/12/12 01:29:47;;;;;;;75.28;38.83;;;7.00;99.90;;;;;;5053717;28;20025;-70
2020/12/12 01:32:14;;;;;;;81.03;39.97;;;7.00;99.90;;;;;;5055949;28;20087;-69
2020/12/12 01:34:40;;;;;;;83.47;39.17;;;6.90;99.90;;;;;;5056585;28;20029;-70
2020/12/12 01:37:05;;;;;;;82.43;39.97;;;6.90;99.90;;;;;;5061490;28;20070;-69
2020/12/12 01:39:31;;;;;;;87.97;41.17;;;7.00;99.90;;;;;;5057207;28;20459;-69
2020/12/12 01:41:57;;;;;;;86.20;40.35;;;6.90;99.90;;;;;;5055251;28;20037;-70
2020/12/12 01:44:22;;;;;;;85.47;40.33;;;6.90;99.90;;;;;;5054369;28;20395;-73
2020/12/12 01:46:49;;;;;;;82.65;39.00;;;7.00;99.90;;;;;;5053083;28;20402;-68
2020/12/12 01:49:15;;;;;;;81.10;40.05;;;7.00;99.90;;;;;;5053795;28;20131;-69
2020/12/12 01:51:43;;;;;;;84.65;40.97;;;7.00;99.90;;;;;;5057085;28;20021;-68
2020/12/12 01:54:09;;;;;;;78.30;37.67;;;7.00;99.90;;;;;;5058935;28;20021;-68
2020/12/12 01:56:35;;;;;;;75.63;39.03;;;7.00;99.90;;;;;;5055168;28;20056;-70
2020/12/12 01:59:01;;;;;;;85.53;39.90;;;7.00;99.90;;;;;;5055923;28;20047;-68
2020/12/12 02:01:29;;;;;;;83.38;41.72;;;7.00;99.90;;;;;;5056500;28;20033;-70
2020/12/12 02:03:56;;;;;;;80.18;38.40;;;7.00;99.90;;;;;;5056027;28;20039;-71
2020/12/12 02:06:22;;;;;;;86.45;42.42;;;7.00;99.90;;;;;;5056627;28;20036;-69
2020/12/12 02:08:52;;;;;;;85.53;42.55;;;7.00;99.90;;;;;;5053192;28;20036;-70
2020/12/12 02:11:18;;;;;;;84.03;43.80;;;7.00;99.90;;;;;;5057192;28;20482;-69
2020/12/12 02:13:47;;;;;;;92.32;43.17;;;6.90;99.90;;;;;;5053401;28;20110;-69
2020/12/12 02:16:18;;;;;;;91.45;44.30;;;6.90;99.90;;;;;;5056341;28;20113;-70
2020/12/12 02:18:44;;;;;;;93.05;44.92;;;6.90;99.90;;;;;;5053077;28;20104;-68
2020/12/12 02:21:10;;;;;;;94.82;43.80;;;6.90;99.90;;;;;;5055575;28;20475;-70
2020/12/12 02:23:36;;;;;;;95.18;46.25;;;6.90;99.90;;;;;;5058337;28;20029;-69
2020/12/12 02:26:02;;;;;;;96.90;43.03;;;6.90;99.90;;;;;;5055627;28;20531;-70
2020/12/12 02:31:25;;;;;;;91.75;43.13;;;6.90;99.90;;;;;;5053566;28;20409;-69
2020/12/12 02:33:51;;;;;;;93.60;43.40;;;6.90;99.90;;;;;;5054093;28;20124;-69
2020/12/12 02:36:16;;;;;;;95.88;43.83;;;6.90;99.90;;;;;;5054063;28;20056;-69
2020/12/12 02:38:43;;;;;;;92.47;43.28;;;6.90;99.90;;;;;;5053281;28;20545;-69
2020/12/12 02:41:09;;;;;;;90.05;43.92;;;6.90;99.90;;;;;;5056403;28;20455;-70
2020/12/12 02:43:34;;;;;;;100.97;43.97;;;6.90;99.90;;;;;;5054943;28;20021;-70
2020/12/12 02:46:00;;;;;;;99.05;45.42;;;6.90;99.90;;;;;;5058460;28;20028;-70
2020/12/12 02:48:26;;;;;;;97.05;46.00;;;6.90;99.90;;;;;;5053179;28;20473;-70
2020/12/12 02:50:51;;;;;;;97.93;46.65;;;6.90;99.90;;;;;;5035766;28;20083;-70
2020/12/12 02:53:17;;;;;;;97.65;46.30;;;6.90;99.90;;;;;;5052270;28;20025;-70
2020/12/12 02:55:42;;;;;;;87.75;43.78;;;6.90;99.90;;;;;;5052809;28;20031;-69
2020/12/12 02:58:08;;;;;;;98.68;45.03;;;6.90;99.90;;;;;;5055168;28;20032;-69
2020/12/12 03:00:34;;;;;;;102.30;46.85;;;6.90;99.90;;;;;;5058696;28;20489;-69
2020/12/12 03:02:59;;;;;;;95.85;45.70;;;6.90;99.90;;;;;;5059667;28;20043;-69
2020/12/12 03:05:25;;;;;;;93.78;45.25;;;6.90;99.90;;;;;;5057765;28;20451;-70
2020/12/12 03:07:50;;;;;;;100.43;46.95;;;6.90;99.90;;;;;;5058446;28;20561;-70
2020/12/12 03:10:16;;;;;;;90.93;44.63;;;6.90;99.90;;;;;;5057462;28;20029;-69
2020/12/12 03:12:42;;;;;;;96.85;47.25;;;6.90;99.90;;;;;;5057234;28;20025;-70
2020/12/12 03:15:10;;;;;;;90.10;44.47;;;6.90;99.90;;;;;;5058109;28;20029;-69
2020/12/12 03:17:36;;;;;;;93.85;46.03;;;6.90;99.90;;;;;;5056987;28;20076;-70
2020/12/12 03:20:04;;;;;;;97.30;45.47;;;6.90;99.90;;;;;;5062829;28;20029;-70
2020/12/12 03:22:29;;;;;;;92.82;46.20;;;6.90;99.90;;;;;;5059015;28;20051;-70
2020/12/12 03:24:55;;;;;;;96.80;45.35;;;6.80;99.90;;;;;;5056473;28;20025;-70
2020/12/12 03:27:20;;;;;;;91.25;44.33;;;6.90;99.90;;;;;;5057360;28;20067;-69
2020/12/12 03:29:46;;;;;;;81.75;42.67;;;6.90;99.90;;;;;;5058622;28;20077;-69
2020/12/12 03:32:12;;;;;;;93.57;43.33;;;6.90;99.90;;;;;;5056935;28;20017;-69
2020/12/12 03:34:38;;;;;;;85.35;43.90;;;7.00;99.90;;;;;;5056661;28;20083;-70
2020/12/12 03:37:05;;;;;;;87.57;43.33;;;6.90;99.90;;;;;;5060905;28;20431;-70
2020/12/12 03:39:31;;;;;;;83.30;42.30;;;7.00;99.90;;;;;;5056619;28;20075;-70
2020/12/12 03:41:57;;;;;;;83.70;42.88;;;6.90;99.90;;;;;;5057118;28;20049;-70
2020/12/12 03:44:23;;;;;;;82.65;40.78;;;7.00;99.90;;;;;;5058144;28;20021;-70
2020/12/12 03:46:49;;;;;;;86.07;44.90;;;6.90;99.90;;;;;;5057174;28;20088;-69
2020/12/12 03:49:15;;;;;;;78.93;40.85;;;6.90;99.90;;;;;;5054497;28;20021;-69
2020/12/12 03:51:40;;;;;;;77.03;41.40;;;6.90;99.90;;;;;;5055500;28;20032;-70
2020/12/12 03:54:06;;;;;;;74.88;41.33;;;6.90;99.90;;;;;;5060508;28;20029;-68
2020/12/12 03:56:32;;;;;;;78.85;41.53;;;7.00;99.90;;;;;;5056414;28;20025;-70
2020/12/12 03:58:57;;;;;;;76.45;41.15;;;7.00;99.90;;;;;;5056440;28;20029;-68
2020/12/12 04:01:23;;;;;;;75.97;41.78;;;6.90;99.90;;;;;;5057232;28;20067;-70
2020/12/12 04:03:49;;;;;;;78.07;43.80;;;7.00;99.90;;;;;;5055320;28;20451;-69
2020/12/12 04:06:14;;;;;;;75.95;42.97;;;6.90;99.90;;;;;;5055366;28;20020;-70
2020/12/12 04:08:40;;;;;;;74.93;40.42;;;6.90;99.90;;;;;;5058055;28;20040;-70
2020/12/12 04:11:06;;;;;;;73.53;42.75;;;6.90;99.90;;;;;;5058141;28;20059;-68
2020/12/12 04:13:31;;;;;;;78.50;42.72;;;6.90;99.90;;;;;;5056302;28;20429;-69
2020/12/12 04:15:57;;;;;;;72.70;40.00;;;6.90;99.90;;;;;;5058708;28;20032;-70
2020/12/12 04:18:22;;;;;;;81.70;42.47;;;6.90;99.90;;;;;;5055733;28;20427;-70
2020/12/12 04:20:48;;;;;;;73.40;41.08;;;6.90;99.90;;;;;;5054954;28;20035;-70
2020/12/12 04:23:14;;;;;;;69.95;40.30;;;6.90;99.90;;;;;;5056603;28;20487;-70
2020/12/12 04:25:40;;;;;;;76.15;41.40;;;6.80;99.90;;;;;;5056557;28;20036;-70
2020/12/12 04:28:06;;;;;;;72.93;39.08;;;6.80;99.90;;;;;;5059153;28;20029;-70
2020/12/12 04:30:31;;;;;;;70.13;40.83;;;6.80;99.90;;;;;;5057249;28;20025;-70
2020/12/12 04:32:57;;;;;;;73.90;40.00;;;6.80;99.90;;;;;;5057676;28;20592;-70
2020/12/12 04:35:23;;;;;;;76.65;40.13;;;6.90;99.90;;;;;;5054393;28;20032;-70
2020/12/12 04:37:49;;;;;;;67.95;39.63;;;6.80;99.90;;;;;;5053457;28;20037;-70
2020/12/12 04:40:15;;;;;;;78.18;41.55;;;6.80;99.90;;;;;;5056460;28;20447;-70
2020/12/12 04:42:42;;;;;;;74.90;38.53;;;6.80;99.90;;;;;;5056431;28;20021;-70
2020/12/12 04:45:10;;;;;;;75.72;39.30;;;6.80;99.90;;;;;;5059463;28;20036;-69
2020/12/12 04:47:37;;;;;;;73.50;41.00;;;6.80;99.90;;;;;;5058670;28;20368;-70
2020/12/12 04:50:04;;;;;;;70.82;38.83;;;6.80;99.90;;;;;;5056243;28;20340;-70
2020/12/12 04:52:36;;;;;;;71.93;39.13;;;6.80;99.90;;;;;;5055023;28;20021;-69
2020/12/12 04:55:05;;;;;;;74.43;39.25;;;6.80;99.90;;;;;;5056663;28;20108;-70
2020/12/12 04:57:33;;;;;;;80.70;41.10;;;6.90;99.90;;;;;;5055199;28;20025;-70
2020/12/12 05:00:00;;;;;;;69.65;38.72;;;6.80;99.90;;;;;;5055462;28;20530;-70
2020/12/12 05:02:26;;;;;;;77.05;40.58;;;6.80;99.90;;;;;;5057580;28;20060;-68
2020/12/12 05:04:52;;;;;;;73.10;39.60;;;6.90;99.90;;;;;;5053999;28;20033;-70
2020/12/12 05:07:18;;;;;;;80.75;39.60;;;6.90;99.90;;;;;;5053859;28;20479;-70
2020/12/12 05:09:44;;;;;;;72.07;39.17;;;6.90;99.90;;;;;;5056440;28;20505;-69
2020/12/12 05:12:13;;;;;;;78.70;39.35;;;6.90;99.90;;;;;;5052688;28;20120;-69
2020/12/12 05:14:39;;;;;;;74.45;39.22;;;6.90;99.90;;;;;;5047688;28;20474;-70
2020/12/12 05:17:07;;;;;;;72.38;38.33;;;6.90;99.90;;;;;;5045973;28;20014;-70
2020/12/12 05:19:33;;;;;;;68.97;38.22;;;6.90;99.90;;;;;;5057944;28;20064;-70
2020/12/12 05:22:02;;;;;;;78.18;38.95;;;6.90;99.90;;;;;;5053321;28;20029;-70
2020/12/12 05:24:29;;;;;;;69.05;38.90;;;6.90;99.90;;;;;;5051993;28;20078;-70
2020/12/12 05:27:01;;;;;;;79.88;40.83;;;6.90;99.90;;;;;;5052538;28;20029;-70
2020/12/12 05:29:27;;;;;;;73.95;40.92;;;7.00;99.90;;;;;;5052300;28;20498;-70
2020/12/12 05:31:58;;;;;;;73.07;39.60;;;7.00;99.90;;;;;;5053818;28;20467;-70
2020/12/12 05:34:25;;;;;;;75.50;38.90;;;7.00;99.90;;;;;;5053914;28;20021;-69
2020/12/12 05:36:52;;;;;;;70.07;39.03;;;7.00;99.90;;;;;;5059053;28;20392;-70
2020/12/12 05:39:18;;;;;;;71.55;38.13;;;7.10;99.90;;;;;;5055143;28;20080;-70
2020/12/12 05:41:46;;;;;;;72.80;39.10;;;7.10;99.90;;;;;;5055188;28;20155;-70
2020/12/12 05:44:12;;;;;;;73.13;39.50;;;7.10;99.90;;;;;;5056356;28;20017;-69
2020/12/12 05:46:38;;;;;;;67.50;37.10;;;7.20;99.90;;;;;;5055204;28;20033;-70
2020/12/12 05:49:04;;;;;;;69.45;39.30;;;7.10;99.90;;;;;;5055240;28;20029;-70
2020/12/12 05:51:31;;;;;;;75.63;40.72;;;7.10;99.90;;;;;;5055259;28;20045;-70
2020/12/12 05:53:58;;;;;;;69.00;38.60;;;7.20;99.90;;;;;;5057130;28;20029;-70
2020/12/12 05:56:26;;;;;;;74.65;39.70;;;7.20;99.90;;;;;;5056165;28;20029;-68
2020/12/12 05:58:53;;;;;;;70.38;37.85;;;7.20;99.90;;;;;;5055951;28;20060;-70
2020/12/12 06:01:28;;;;;;;69.25;38.13;;;7.20;99.90;;;;;;5054978;28;20372;-70
2020/12/12 06:04:04;;;;;;;70.13;38.15;;;7.30;99.90;;;;;;5055917;28;20028;-68
2020/12/12 06:06:30;;;;;;;65.43;38.10;;;7.30;99.90;;;;;;5054429;28;20044;-70
2020/12/12 06:09:08;;;;;;;68.93;39.70;;;7.30;99.90;;;;;;5054032;28;20024;-70
2020/12/12 06:11:39;;;;;;;73.45;39.63;;;7.30;99.90;;;;;;5054910;28;20540;-69
2020/12/12 06:14:05;;;;;;;66.45;38.53;;;7.30;99.90;;;;;;5054265;28;20028;-70
2020/12/12 06:16:34;;;;;;;68.53;40.03;;;7.30;99.90;;;;;;5055403;28;20061;-71
2020/12/12 06:19:10;;;;;;;65.22;39.33;;;7.30;99.90;;;;;;5055658;28;20017;-69
2020/12/12 06:21:40;;;;;;;68.00;39.92;;;7.30;99.90;;;;;;5055130;28;20155;-70
2020/12/12 06:24:07;;;;;;;;;;;7.30;99.90;;;;;;5055205;28;20056;-70
2020/12/12 06:26:38;;;;;;;73.60;40.55;;;7.30;99.90;;;;;;5056189;28;19912;-69
2020/12/12 06:29:04;;;;;;;75.85;40.88;;;7.30;99.90;;;;;;5053975;28;20039;-70
2020/12/12 06:31:35;;;;;;;73.55;42.15;;;7.30;99.90;;;;;;5057454;28;20021;-69
2020/12/12 06:34:01;;;;;;;74.55;42.00;;;7.30;99.90;;;;;;5060202;28;20063;-71
2020/12/12 06:36:29;;;;;;;74.10;41.22;;;7.30;99.90;;;;;;5058764;28;20025;-70
2020/12/12 06:39:17;;;;;;;78.20;43.03;;;7.30;99.90;;;;;;5057535;28;20482;-70
2020/12/12 06:41:43;;;;;;;76.13;41.00;;;7.30;99.90;;;;;;5060058;28;20028;-69
2020/12/12 06:44:09;;;;;;;74.00;41.42;;;7.30;99.90;;;;;;5057796;28;20075;-70
2020/12/12 06:46:52;;;;;;;70.75;39.97;;;7.20;99.90;;;;;;5059719;28;20029;-69
2020/12/12 06:49:18;;;;;;;75.95;41.20;;;7.20;99.90;;;;;;5059672;28;20040;-70
2020/12/12 06:51:43;;;;;;;72.05;40.10;;;7.20;99.90;;;;;;5058320;28;20024;-70
2020/12/12 06:54:09;;;;;;;71.38;40.40;;;7.20;99.90;;;;;;5057396;28;20029;-70
2020/12/12 06:56:35;;;;;;;76.35;41.20;;;7.30;99.90;;;;;;5057303;28;20471;-70
2020/12/12 06:59:37;;;;;;;67.88;40.10;;;7.20;99.90;;;;;;5057133;28;20028;-70
2020/12/12 07:02:07;;;;;;;69.28;38.03;;;7.20;99.90;;;;;;5059171;28;20360;-69
2020/12/12 07:04:37;;;;;;;67.60;39.33;;;7.20;99.90;;;;;;5058342;28;20032;-69
2020/12/12 07:07:11;;;;;;;66.35;38.53;;;7.20;99.90;;;;;;5057243;28;20029;-70
2020/12/12 07:09:41;;;;;;;69.78;39.30;;;7.20;99.90;;;;;;5057365;28;20040;-68
2020/12/12 07:12:08;;;;;;;70.28;38.20;;;7.10;99.90;;;;;;5057104;28;20485;-70
2020/12/12 07:14:36;;;;;;;72.72;41.72;;;7.20;99.90;;;;;;5058012;28;20025;-70
2020/12/12 07:17:03;;;;;;;71.63;39.75;;;7.20;99.90;;;;;;5058183;28;20059;-69
2020/12/12 07:19:38;;;;;;;74.30;39.85;;;7.20;99.90;;;;;;5056921;28;20032;-70
2020/12/12 07:22:11;;;;;;;72.22;39.60;;;7.30;99.90;;;;;;5057242;28;20024;-70
2020/12/12 07:24:41;;;;;;;73.22;39.17;;;7.30;99.90;;;;;;5056680;28;20033;-70
2020/12/12 07:27:07;;;;;;;70.00;39.05;;;7.30;99.90;;;;;;5057856;28;20041;-70
2020/12/12 07:29:33;;;;;;;65.28;37.92;;;7.30;99.90;;;;;;5056404;28;20094;-70
2020/12/12 07:32:00;;;;;;;64.88;37.95;;;7.30;99.90;;;;;;5059504;28;20032;-69
2020/12/12 07:34:26;;;;;;;62.30;34.15;;;7.20;99.90;;;;;;5056925;28;20025;-70
2020/12/12 07:37:03;;;;;;;57.13;31.75;;;7.20;99.90;;;;;;5057511;28;20371;-70
2020/12/12 07:39:39;;;;;;;58.30;32.08;;;7.20;99.90;;;;;;5056479;28;20124;-71
2020/12/12 07:42:06;;;;;;;56.80;32.28;;;7.20;99.90;;;;;;5056319;28;20029;-69
2020/12/12 07:44:33;;;;;;;58.63;30.77;;;7.20;99.90;;;;;;5054679;28;20040;-71
2020/12/12 07:47:04;;;;;;;61.42;31.83;;;7.10;99.90;;;;;;5057103;28;20029;-74
2020/12/12 07:49:31;;;;;;;58.67;31.58;;;7.10;99.90;;;;;;5058460;28;20092;-71
2020/12/12 07:52:05;;;;;;;59.97;32.97;;;7.10;99.90;;;;;;5058682;28;20612;-71
2020/12/12 07:54:34;;;;;;;56.60;31.88;;;7.10;99.90;;;;;;5057015;28;20029;-71
2020/12/12 07:57:00;;;;;;;60.83;31.53;;;7.10;99.90;;;;;;5056268;28;20021;-71
2020/12/12 07:59:25;;;;;;;59.22;31.50;;;7.10;99.90;;;;;;5056685;28;20271;-72
2020/12/12 08:01:51;;;;;;;61.20;34.45;;;7.10;99.90;;;;;;5056895;28;20028;-71
2020/12/12 08:04:23;;;;;;;60.00;31.90;;;7.10;99.90;;;;;;5057149;28;20021;-71
2020/12/12 08:06:49;;;;;;;60.65;31.15;;;7.10;99.90;;;;;;5056049;28;20409;-70
2020/12/12 08:09:23;;;;;;;63.17;34.28;;;7.10;99.90;;;;;;5055810;28;20041;-70
2020/12/12 08:11:56;;;;;;;57.72;32.97;;;7.20;99.90;;;;;;5055929;28;20451;-71
2020/12/12 08:14:22;;;;;;;57.75;34.25;;;7.20;99.90;;;;;;5055950;28;20367;-71
2020/12/12 08:16:53;;;;;;;62.72;35.60;;;7.30;99.90;;;;;;5055966;28;20540;-71
2020/12/12 08:19:19;;;;;;;57.63;32.65;;;7.30;99.90;;;;;;5056236;28;20028;-71
2020/12/12 08:21:48;;;;;;;61.33;33.00;;;7.40;99.90;;;;;;5056824;28;20132;-70
2020/12/12 08:24:14;;;;;;;62.20;33.72;;;7.40;99.90;;;;;;5054162;28;20039;-70
2020/12/12 08:26:40;;;;;;;56.30;31.90;;;7.40;99.90;;;;;;5055627;28;20052;-70
2020/12/12 08:29:06;;;;;;;59.35;30.98;;;7.50;99.90;;;;;;5057667;28;20484;-70
2020/12/12 08:31:39;;;;;;;63.15;34.33;;;7.50;99.90;;;;;;5055593;28;20028;-70
2020/12/12 08:34:07;;;;;;;62.88;34.45;;;7.60;99.90;;;;;;5048476;28;20460;-71
2020/12/12 08:36:33;;;;;;;56.42;34.15;;;7.50;99.90;;;;;;5056939;28;20017;-71
2020/12/12 08:39:02;;;;;;;62.38;33.38;;;7.60;99.90;;;;;;5054021;28;20163;-70
2020/12/12 08:41:32;;;;;;;55.35;31.60;;;7.60;99.90;;;;;;5053618;28;20024;-71
2020/12/12 08:43:58;;;;;;;58.38;32.05;;;7.70;99.90;;;;;;5055869;28;20037;-71
2020/12/12 08:46:25;;;;;;;56.55;32.33;;;7.70;99.90;;;;;;5053673;28;20470;-71
2020/12/12 08:48:52;;;;;;;52.13;31.30;;;7.70;99.90;;;;;;5053253;28;20106;-71
2020/12/12 08:51:31;;;;;;;58.92;33.65;;;7.70;99.90;;;;;;5054147;28;20025;-71
2020/12/12 08:53:57;;;;;;;59.53;33.10;;;7.80;99.90;;;;;;5055105;28;20029;-70
2020/12/12 08:56:28;;;;;;;59.13;33.28;;;7.90;99.90;;;;;;5052626;28;20082;-70
2020/12/12 08:59:04;;;;;;;58.58;32.55;;;8.00;99.90;;;;;;5052856;28;20037;-71
2020/12/12 09:01:47;;;;;;;62.22;34.47;;;8.00;99.90;;;;;;5053895;28;20029;-71
2020/12/12 09:04:13;;;;;;;56.63;32.38;;;8.10;99.90;;;;;;5033649;28;20411;-71
2020/12/12 09:06:49;;;;;;;59.20;33.65;;;8.20;99.90;;;;;;5035251;28;20038;-71
2020/12/12 09:09:28;;;;;;;65.47;36.75;;;8.30;99.90;;;;;;5037403;28;20033;-71
2020/12/12 09:12:08;;;;;;;69.03;39.20;;;8.30;99.90;;;;;;5053730;28;20048;-71
2020/12/12 09:14:35;;;;;;;65.18;38.22;;;8.30;99.90;;;;;;5054773;28;20130;-71
2020/12/12 09:17:04;;;;;;;62.83;36.53;;;8.40;99.90;;;;;;5052589;28;20056;-71
2020/12/12 09:19:31;;;;;;;64.60;38.50;;;8.40;99.90;;;;;;5053064;28;20145;-70
2020/12/12 09:21:57;;;;;;;61.17;36.65;;;8.40;99.90;;;;;;5056352;28;20083;-71
2020/12/12 09:24:23;;;;;;;61.85;37.38;;;8.40;99.90;;;;;;5054665;28;20036;-71
2020/12/12 09:26:52;;;;;;;65.82;37.72;;;8.40;99.90;;;;;;5052645;28;20021;-71
2020/12/12 09:29:18;;;;;;;67.78;40.53;;;8.50;99.90;;;;;;5053649;28;20108;-71
2020/12/12 09:31:44;;;;;;;68.00;39.30;;;8.50;99.90;;;;;;5054095;28;20021;-71
2020/12/12 09:34:10;;;;;;;67.32;40.22;;;8.60;99.90;;;;;;5053481;28;20029;-71
2020/12/12 09:36:36;;;;;;;69.03;41.38;;;8.70;99.90;;;;;;5053145;28;20013;-71
2020/12/12 09:39:03;;;;;;;59.53;37.50;;;8.70;99.90;;;;;;5054370;28;20383;-71
2020/12/12 09:41:29;;;;;;;67.78;40.13;;;8.60;99.90;;;;;;5053304;28;20032;-71
2020/12/12 09:43:55;;;;;;;61.58;38.72;;;8.70;99.90;;;;;;5055152;28;20028;-71
2020/12/12 09:46:21;;;;;;;63.53;38.40;;;8.60;99.90;;;;;;5053414;28;20121;-71
2020/12/12 09:48:47;;;;;;;63.83;38.08;;;8.60;99.90;;;;;;5052887;28;20029;-71
2020/12/12 09:51:14;;;;;;;66.28;39.85;;;8.50;99.90;;;;;;5052071;28;20533;-71
2020/12/12 09:53:41;;;;;;;65.47;39.25;;;8.50;99.90;;;;;;5055531;28;20107;-70
2020/12/12 09:56:06;;;;;;;61.70;36.60;;;8.50;99.90;;;;;;5053441;28;20070;-71
2020/12/12 09:58:32;;;;;;;61.10;37.83;;;8.50;99.90;;;;;;5053157;28;20037;-71
2020/12/12 10:00:58;;;;;;;62.92;37.70;;;8.50;99.90;;;;;;5053300;28;20052;-71
2020/12/12 10:03:24;;;;;;;62.53;38.40;;;8.60;99.90;;;;;;5053320;28;20103;-71
2020/12/12 10:05:49;;;;;;;62.53;36.78;;;8.60;99.90;;;;;;5053304;28;20098;-70
2020/12/12 10:08:15;;;;;;;59.97;36.80;;;8.60;99.90;;;;;;5057764;28;20037;-71
2020/12/12 10:10:41;;;;;;;61.70;38.45;;;8.70;99.90;;;;;;5055806;28;20024;-71
2020/12/12 10:13:07;;;;;;;63.25;37.10;;;8.70;99.90;;;;;;5058264;28;20097;-70
2020/12/12 10:15:32;;;;;;;59.30;35.20;;;8.80;99.90;;;;;;5058062;28;20032;-71
2020/12/12 10:17:58;;;;;;;56.60;36.53;;;8.80;99.90;;;;;;5057770;28;20025;-71
2020/12/12 10:20:24;;;;;;;60.40;36.55;;;8.80;99.90;;;;;;5057866;28;20028;-71
2020/12/12 10:22:50;;;;;;;59.67;36.60;;;8.80;99.90;;;;;;5058319;28;20164;-71
2020/12/12 10:25:16;;;;;;;62.22;38.35;;;8.90;99.90;;;;;;5055294;28;20032;-71
2020/12/12 10:27:44;;;;;;;53.75;35.80;;;9.00;99.90;;;;;;5057004;28;20021;-71
2020/12/12 10:30:11;;;;;;;61.30;35.67;;;9.00;99.90;;;;;;5057061;28;20024;-71
2020/12/12 10:32:37;;;;;;;57.92;34.83;;;9.10;99.90;;;;;;5058172;28;20017;-70
2020/12/12 10:35:07;;;;;;;56.65;35.55;;;9.20;99.90;;;;;;5056414;28;20024;-71
2020/12/12 10:37:33;;;;;;;60.42;36.55;;;9.30;99.90;;;;;;5057274;28;20486;-72
2020/12/12 10:40:20;;;;;;;56.33;33.65;;;9.40;99.90;;;;;;5058330;28;20494;-71
2020/12/12 10:42:45;;;;;;;54.35;34.25;;;9.50;99.90;;;;;;5056583;28;20032;-71
2020/12/12 10:45:11;;;;;;;57.85;35.90;;;9.40;99.90;;;;;;5054830;28;20086;-71
2020/12/12 10:47:37;;;;;;;58.35;35.65;;;9.40;99.90;;;;;;5058700;28;20043;-71
2020/12/12 10:50:04;;;;;;;53.88;35.55;;;9.30;99.90;;;;;;5056280;28;20021;-72
2020/12/12 10:52:29;;;;;;;56.28;35.42;;;9.40;99.90;;;;;;5054745;28;20021;-71
2020/12/12 10:54:55;;;;;;;57.17;35.30;;;9.40;99.90;;;;;;5057126;28;20019;-71
2020/12/12 10:57:21;;;;;;;58.15;34.05;;;9.40;99.90;;;;;;5046586;28;20104;-71
2020/12/12 10:59:46;;;;;;;56.42;35.22;;;9.60;99.90;;;;;;5056308;28;20025;-71
2020/12/12 11:02:13;;;;;;;60.40;36.25;;;9.60;99.90;;;;;;5058317;28;20040;-70
2020/12/12 11:04:40;;;;;;;55.60;34.33;;;9.70;99.90;;;;;;5054383;28;20053;-71
2020/12/12 11:07:06;;;;;;;54.88;35.10;;;9.70;99.90;;;;;;5056429;28;20032;-70
2020/12/12 11:09:32;;;;;;;52.85;33.85;;;9.90;99.90;;;;;;5057486;28;20037;-71
2020/12/12 11:11:58;;;;;;;53.80;33.30;;;9.90;99.90;;;;;;5054574;28;20044;-71
2020/12/12 11:14:25;;;;;;;51.40;31.63;;;10.00;99.90;;;;;;5040387;28;20105;-71
2020/12/12 11:16:51;;;;;;;52.63;32.08;;;10.00;99.90;;;;;;5039532;28;20441;-71
2020/12/12 11:19:17;;;;;;;51.08;31.88;;;10.10;99.90;;;;;;5050937;28;20489;-71
2020/12/12 11:21:43;;;;;;;50.47;32.90;;;10.20;99.90;;;;;;5054418;28;20517;-71
2020/12/12 11:24:09;;;;;;;50.95;31.65;;;10.20;99.90;;;;;;5056925;28;20478;-71
2020/12/12 11:26:34;;;;;;;45.40;27.58;;;10.20;99.90;;;;;;5053520;28;20049;-72
2020/12/12 11:29:00;;;;;;;44.35;27.92;;;10.20;99.90;;;;;;5053851;28;20021;-71
2020/12/12 11:31:26;;;;;;;46.10;28.60;;;10.10;99.90;;;;;;5057200;28;20033;-72
2020/12/12 11:33:59;;;;;;;48.83;29.88;;;10.20;99.90;;;;;;5056703;28;20052;-72
2020/12/12 11:44:26;;;;;;;55.72;32.70;;;10.20;99.90;;;;;;5054186;28;20481;-71
2020/12/12 11:46:52;;;;;;;47.40;28.40;;;10.10;99.90;;;;;;5043935;28;20196;-71
2020/12/12 11:49:20;;;;;;;43.50;28.20;;;10.10;99.90;;;;;;5056068;28;20441;-71
2020/12/12 11:51:46;;;;;;;50.42;32.15;;;10.10;99.90;;;;;;5055775;28;20017;-72
2020/12/12 11:54:12;;;;;;;50.80;32.13;;;10.10;99.90;;;;;;5056439;28;20520;-71
2020/12/12 11:56:37;;;;;;;51.67;30.38;;;10.10;99.90;;;;;;5058902;28;20029;-72
2020/12/12 11:59:03;;;;;;;47.83;30.42;;;10.10;99.90;;;;;;5055362;28;20029;-72
2020/12/12 12:01:29;;;;;;;48.20;30.67;;;10.20;99.90;;;;;;5055584;28;20025;-71
2020/12/12 12:03:56;;;;;;;51.47;31.15;;;10.30;99.90;;;;;;5057318;28;20033;-72
2020/12/12 12:06:23;;;;;;;54.67;31.98;;;10.30;99.90;;;;;;5036759;28;20033;-70
2020/12/12 12:11:36;;;;;;;48.70;30.88;;;10.40;99.90;;;;;;5057720;28;20029;-73
2020/12/12 12:14:07;;;;;;;49.28;31.48;;;10.50;99.90;;;;;;5055580;28;20025;-76
2020/12/12 12:16:36;;;;;;;53.47;34.20;;;10.40;99.90;;;;;;5055245;28;20021;-70
2020/12/12 12:19:08;;;;;;;49.40;32.67;;;10.40;99.90;;;;;;5056745;28;20025;-71
2020/12/12 12:21:35;;;;;;;52.38;32.38;;;10.30;99.90;;;;;;5054972;28;20068;-72
2020/12/12 12:24:05;;;;;;;46.85;29.45;;;10.20;99.90;;;;;;5055134;28;20079;-71
2020/12/12 12:26:34;;;;;;;48.08;29.48;;;10.20;99.90;;;;;;5051956;28;20032;-71
2020/12/12 12:29:07;;;;;;;45.15;29.23;;;10.20;99.90;;;;;;5054103;28;20079;-72
2020/12/12 12:31:34;;;;;;;47.45;29.23;;;10.10;99.90;;;;;;5054753;28;20397;-71
2020/12/12 12:34:00;;;;;;;44.63;27.75;;;10.10;99.90;;;;;;5055699;28;20451;-71
2020/12/12 12:36:27;;;;;;;40.03;27.00;;;10.10;99.90;;;;;;5053098;28;20028;-71
2020/12/12 12:38:53;;;;;;;43.10;25.98;;;10.10;99.90;;;;;;5052454;28;20036;-73
2020/12/12 12:41:20;;;;;;;42.65;25.63;;;10.00;99.90;;;;;;5053126;28;20494;-71
2020/12/12 12:43:46;;;;;;;40.40;25.98;;;9.90;99.90;;;;;;5036620;28;20040;-71
2020/12/12 12:46:12;;;;;;;41.47;25.90;;;9.90;99.90;;;;;;5054262;28;20025;-72
2020/12/12 12:48:38;;;;;;;40.15;25.98;;;9.80;99.90;;;;;;5054994;28;20138;-72
2020/12/12 12:51:07;;;;;;;39.35;26.77;;;9.80;99.90;;;;;;5053134;28;20017;-72